createdAt,value
2019-03-21T00:00:38.996Z,102060.98
2019-03-21T00:03:06.936Z,102070.01
2019-03-21T00:05:34.688Z,102071.84
2019-03-21T00:08:02.424Z,102063.91
2019-03-21T00:10:30.062Z,102071.53
2019-03-21T00:12:57.991Z,102068.34
2019-03-21T00:15:25.646Z,102062.91
2019-03-21T00:17:53.386Z,102058.83
2019-03-21T00:20:21.036Z,102056.20
2019-03-21T00:22:48.689Z,102053.38
2019-03-21T00:25:16.356Z,102054.22
2019-03-21T00:27:44.029Z,102053.48
2019-03-21T00:30:11.671Z,102046.84
2019-03-21T00:32:39.314Z,102049.88
2019-03-21T00:35:06.967Z,102049.83
2019-03-21T00:37:34.661Z,102045.16
2019-03-21T00:40:02.362Z,102042.34
2019-03-21T00:42:30.003Z,102034.54
2019-03-21T00:44:57.672Z,102035.52
2019-03-21T00:47:25.315Z,102030.53
2019-03-21T00:49:52.967Z,102036.80
2019-03-21T00:52:20.622Z,102024.75
2019-03-21T00:54:48.280Z,102029.86
2019-03-21T00:57:15.942Z,102024.27
2019-03-21T00:59:43.591Z,102017.22
2019-03-21T01:02:11.238Z,102006.44
2019-03-21T01:04:38.883Z,102005.72
2019-03-21T01:07:06.570Z,102000.57
2019-03-21T01:09:34.358Z,102000.82
2019-03-21T01:12:02.091Z,102002.59
2019-03-21T01:14:30.257Z,102000.97
2019-03-21T01:16:58.071Z,101996.02
2019-03-21T01:19:25.715Z,101988.30
2019-03-21T01:21:53.363Z,101980.57
2019-03-21T01:24:21.040Z,101984.78
2019-03-21T01:26:48.691Z,101982.44
2019-03-21T01:29:16.344Z,101981.42
2019-03-21T01:31:44.251Z,101986.50
2019-03-21T01:34:11.963Z,101985.52
2019-03-21T01:36:39.615Z,101980.24
2019-03-21T01:39:07.352Z,101977.45
2019-03-21T01:41:35.019Z,101980.20
2019-03-21T01:44:02.679Z,101979.11
2019-03-21T01:46:30.331Z,101981.47
2019-03-21T01:48:57.990Z,101977.06
2019-03-21T01:51:25.639Z,101977.58
2019-03-21T01:53:53.290Z,101981.42
2019-03-21T01:56:20.934Z,101974.58
2019-03-21T01:58:48.595Z,101972.66
2019-03-21T02:01:16.251Z,101970.31
2019-03-21T02:03:43.907Z,101968.31
2019-03-21T02:06:11.561Z,101965.88
2019-03-21T02:08:39.211Z,101961.87
2019-03-21T02:11:06.860Z,101969.48
2019-03-21T02:13:34.545Z,101968.47
2019-03-21T02:16:02.200Z,101955.84
2019-03-21T02:18:29.854Z,101964.53
2019-03-21T02:20:57.530Z,101963.47
2019-03-21T02:23:25.240Z,101960.91
2019-03-21T02:25:52.891Z,101970.05
2019-03-21T02:28:20.543Z,101965.27
2019-03-21T02:30:48.209Z,101969.82
2019-03-21T02:33:15.881Z,101972.03
2019-03-21T02:35:43.644Z,101968.02
2019-03-21T02:38:11.292Z,101972.34
2019-03-21T02:40:38.952Z,101968.92
2019-03-21T02:43:06.603Z,101969.29
2019-03-21T02:45:34.346Z,101974.69
2019-03-21T02:48:02.006Z,101972.88
2019-03-21T02:50:29.647Z,101981.23
2019-03-21T02:52:57.319Z,101981.63
2019-03-21T02:55:24.956Z,101977.50
2019-03-21T02:57:52.609Z,101979.39
2019-03-21T03:00:20.263Z,101986.23
2019-03-21T03:02:47.923Z,101985.53
2019-03-21T03:05:15.723Z,101980.14
2019-03-21T03:07:43.420Z,101979.48
2019-03-21T03:10:11.068Z,101981.88
2019-03-21T03:12:38.733Z,101981.94
2019-03-21T03:15:06.459Z,101984.43
2019-03-21T03:17:34.173Z,101978.73
2019-03-21T03:20:01.841Z,101982.58
2019-03-21T03:22:29.562Z,101979.89
2019-03-21T03:24:57.211Z,101988.94
2019-03-21T03:27:24.856Z,101992.79
2019-03-21T03:29:52.516Z,101991.59
2019-03-21T03:32:20.182Z,101989.74
2019-03-21T03:34:47.883Z,101996.18
2019-03-21T03:37:15.716Z,101991.59
2019-03-21T03:39:43.380Z,101987.20
2019-03-21T03:42:11.036Z,101992.17
2019-03-21T03:44:38.726Z,101994.02
2019-03-21T03:47:06.431Z,101999.08
2019-03-21T03:49:34.075Z,102000.38
2019-03-21T03:52:01.732Z,102004.46
2019-03-21T03:54:29.394Z,102004.46
2019-03-21T03:56:57.054Z,101997.89
2019-03-21T03:59:24.716Z,102001.53
2019-03-21T04:01:52.375Z,102005.30
2019-03-21T04:04:20.113Z,101997.73
2019-03-21T04:06:47.778Z,102003.43
2019-03-21T04:09:15.454Z,101997.32
2019-03-21T04:11:43.164Z,101989.27
2019-03-21T04:14:10.823Z,101994.62
2019-03-21T04:16:38.537Z,101987.83
2019-03-21T04:19:06.388Z,101987.30
2019-03-21T04:21:34.250Z,101990.45
2019-03-21T04:24:02.057Z,101993.55
2019-03-21T04:26:29.695Z,101990.69
2019-03-21T04:28:57.363Z,102003.27
2019-03-21T04:31:25.021Z,101996.09
2019-03-21T04:33:52.939Z,102003.55
2019-03-21T04:36:20.664Z,101998.42
2019-03-21T04:38:48.318Z,102005.45
2019-03-21T04:41:15.973Z,101997.38
2019-03-21T04:43:43.623Z,101997.94
2019-03-21T04:46:11.271Z,101999.48
2019-03-21T04:48:39.175Z,102001.28
2019-03-21T04:51:06.848Z,101993.71
2019-03-21T04:53:34.559Z,101997.55
2019-03-21T04:56:02.218Z,102002.42
2019-03-21T04:58:29.874Z,101996.89
2019-03-21T05:00:57.519Z,101999.22
2019-03-21T05:03:25.185Z,102005.61
2019-03-21T05:05:52.977Z,102009.08
2019-03-21T05:08:20.696Z,102005.63
2019-03-21T05:10:48.420Z,102008.17
2019-03-21T05:13:16.065Z,102006.65
2019-03-21T05:15:43.723Z,102005.38
2019-03-21T05:18:11.379Z,102008.17
2019-03-21T05:20:39.134Z,102010.12
2019-03-21T05:23:06.816Z,102017.51
2019-03-21T05:25:35.070Z,102029.05
2019-03-21T05:28:02.731Z,102023.03
2019-03-21T05:30:30.384Z,102035.05
2019-03-21T05:32:58.050Z,102030.19
2019-03-21T05:35:25.926Z,102034.27
2019-03-21T05:37:53.699Z,102035.31
2019-03-21T05:40:21.339Z,102047.09
2019-03-21T05:42:48.983Z,102052.80
2019-03-21T05:45:16.656Z,102048.86
2019-03-21T05:47:44.295Z,102051.14
2019-03-21T05:50:11.958Z,102057.31
2019-03-21T05:52:39.612Z,102054.64
2019-03-21T05:55:07.344Z,102050.66
2019-03-21T05:57:34.995Z,102056.79
2019-03-21T06:00:02.664Z,102050.14
2019-03-21T06:02:30.306Z,102054.47
2019-03-21T06:04:57.958Z,102056.79
2019-03-21T06:07:25.660Z,102058.83
2019-03-21T06:09:53.302Z,102055.83
2019-03-21T06:12:20.963Z,102065.64
2019-03-21T06:14:48.625Z,102070.32
2019-03-21T06:17:16.274Z,102068.81
2019-03-21T06:19:43.953Z,102072.88
2019-03-21T06:22:11.693Z,102073.81
2019-03-21T06:24:39.655Z,102073.17
2019-03-21T06:27:14.428Z,102071.52
2019-03-21T06:29:36.714Z,102067.31
2019-03-21T06:32:04.375Z,102066.80
2019-03-21T06:34:32.032Z,102070.11
2019-03-21T06:36:59.685Z,102072.34
2019-03-21T06:39:27.367Z,102067.42
2019-03-21T06:41:55.245Z,102066.00
2019-03-21T06:44:22.931Z,102068.23
2019-03-21T06:46:50.646Z,102070.83
2019-03-21T06:49:18.300Z,102065.78
2019-03-21T06:51:45.970Z,102066.00
2019-03-21T06:54:13.645Z,102064.96
2019-03-21T06:56:41.407Z,102056.91
2019-03-21T06:59:09.067Z,102069.55
2019-03-21T07:01:36.873Z,102058.16
2019-03-21T07:04:07.435Z,102053.89
2019-03-21T07:06:33.942Z,102055.77
2019-03-21T07:09:01.821Z,102061.88
2019-03-21T07:11:29.477Z,102063.22
2019-03-21T07:13:57.132Z,102058.52
2019-03-21T07:16:24.786Z,102057.06
2019-03-21T07:18:52.493Z,102058.98
2019-03-21T07:21:20.175Z,102052.41
2019-03-21T07:23:47.827Z,102052.02
2019-03-21T07:26:15.483Z,102047.72
2019-03-21T07:28:43.138Z,102052.09
2019-03-21T07:31:11.431Z,102050.24
2019-03-21T07:33:39.343Z,102057.30
2019-03-21T07:36:07.115Z,102053.75
2019-03-21T07:38:34.763Z,102059.28
2019-03-21T07:41:02.420Z,102054.44
2019-03-21T07:43:30.079Z,102058.69
2019-03-21T07:45:57.755Z,102058.38
2019-03-21T07:48:25.435Z,102060.94
2019-03-21T07:50:53.087Z,102059.69
2019-03-21T07:53:22.124Z,102067.61
2019-03-21T07:55:49.971Z,102060.40
2019-03-21T07:58:17.627Z,102058.44
2019-03-21T08:00:45.388Z,102060.39
2019-03-21T08:03:13.064Z,102066.97
2019-03-21T08:05:40.919Z,102058.64
2019-03-21T08:08:08.661Z,102063.69
2019-03-21T08:10:36.332Z,102060.20
2019-03-21T08:13:04.034Z,102061.37
2019-03-21T08:15:31.670Z,102056.52
2019-03-21T08:17:59.461Z,102062.42
2019-03-21T08:20:27.238Z,102059.43
2019-03-21T08:22:54.940Z,102059.84
2019-03-21T08:25:22.656Z,102067.20
2019-03-21T08:27:51.786Z,102071.78
2019-03-21T08:30:19.770Z,102067.90
2019-03-21T08:32:47.425Z,102066.59
2019-03-21T08:35:15.162Z,102068.84
2019-03-21T08:37:42.892Z,102071.98
2019-03-21T08:40:10.722Z,102063.55
2019-03-21T08:42:38.395Z,102073.08
2019-03-21T08:45:06.075Z,102072.89
2019-03-21T08:47:33.751Z,102067.74
2019-03-21T08:50:01.407Z,102064.48
2019-03-21T08:52:29.135Z,102068.02
2019-03-21T08:54:56.807Z,102064.94
2019-03-21T08:57:24.490Z,102061.70
2019-03-21T08:59:52.191Z,102075.56
2019-03-21T09:02:19.936Z,102072.80
2019-03-21T09:04:47.590Z,102074.02
2019-03-21T09:07:15.247Z,102070.36
2019-03-21T09:09:42.906Z,102069.38
2019-03-21T09:12:10.568Z,102070.65
2019-03-21T09:14:38.252Z,102068.81
2019-03-21T09:17:05.942Z,102076.33
2019-03-21T09:19:33.594Z,102078.39
2019-03-21T09:22:01.258Z,102072.88
2019-03-21T09:24:28.915Z,102070.28
2019-03-21T09:26:56.572Z,102075.08
2019-03-21T09:29:24.330Z,102065.97
2019-03-21T09:31:52.043Z,102075.08
2019-03-21T09:34:19.751Z,102072.31
2019-03-21T09:36:47.413Z,102070.14
2019-03-21T09:39:15.068Z,102070.13
2019-03-21T09:41:42.721Z,102072.52
2019-03-21T09:44:10.504Z,102067.48
2019-03-21T09:46:38.151Z,102065.98
2019-03-21T09:49:05.803Z,102070.34
2019-03-21T09:51:33.763Z,102061.17
2019-03-21T09:54:09.690Z,102060.02
2019-03-21T09:56:30.819Z,102059.72
2019-03-21T09:58:58.554Z,102059.77
2019-03-21T10:01:26.457Z,102062.33
2019-03-21T10:03:54.127Z,102055.83
2019-03-21T10:06:21.787Z,102050.74
2019-03-21T10:08:49.449Z,102053.16
2019-03-21T10:11:17.216Z,102046.75
2019-03-21T10:13:44.867Z,102041.81
2019-03-21T10:16:12.522Z,102049.27
2019-03-21T10:18:40.276Z,102043.31
2019-03-21T10:21:07.926Z,102040.14
2019-03-21T10:23:35.594Z,102040.66
2019-03-21T10:26:03.245Z,102041.04
2019-03-21T10:28:30.900Z,102042.20
2019-03-21T10:30:59.061Z,102038.20
2019-03-21T10:33:26.775Z,102036.31
2019-03-21T10:35:54.443Z,102030.40
2019-03-21T10:38:22.105Z,102031.44
2019-03-21T10:40:49.756Z,102032.20
2019-03-21T10:43:17.428Z,102032.20
2019-03-21T10:45:45.099Z,102025.49
2019-03-21T10:48:12.760Z,102032.01
2019-03-21T10:50:40.412Z,102030.37
2019-03-21T10:53:08.093Z,102033.50
2019-03-21T10:55:35.936Z,102030.41
2019-03-21T10:58:03.601Z,102026.66
2019-03-21T11:00:31.250Z,102017.05
2019-03-21T11:02:58.938Z,102017.05
2019-03-21T11:05:26.908Z,102013.77
2019-03-21T11:07:54.614Z,102019.53
2019-03-21T11:10:22.278Z,102012.94
2019-03-21T11:12:49.996Z,102009.41
2019-03-21T11:15:17.698Z,102006.16
2019-03-21T11:17:45.430Z,102008.83
2019-03-21T11:20:13.081Z,102000.66
2019-03-21T11:22:40.738Z,102000.67
2019-03-21T11:25:08.386Z,101996.09
2019-03-21T11:27:36.037Z,101985.24
2019-03-21T11:30:15.303Z,101993.56
2019-03-21T11:32:33.052Z,101987.89
2019-03-21T11:35:00.709Z,101991.48
2019-03-21T11:37:28.368Z,101983.02
2019-03-21T11:39:56.028Z,101970.95
2019-03-21T11:42:23.698Z,101964.83
2019-03-21T11:44:51.386Z,101959.83
2019-03-21T11:47:19.096Z,101959.52
2019-03-21T11:49:46.773Z,101954.20
2019-03-21T11:52:18.483Z,101957.59
2019-03-21T11:54:43.952Z,101947.16
2019-03-21T11:57:11.669Z,101943.90
2019-03-21T11:59:51.160Z,101945.25
2019-03-21T12:02:08.687Z,101936.83
2019-03-21T12:04:36.343Z,101939.27
2019-03-21T12:07:04.021Z,101931.67
2019-03-21T12:09:31.708Z,101932.68
2019-03-21T12:11:59.462Z,101927.67
2019-03-21T12:14:27.171Z,101920.45
2019-03-21T12:16:54.840Z,101920.70
2019-03-21T12:19:22.492Z,101914.86
2019-03-21T12:21:50.142Z,101917.45
2019-03-21T12:24:17.843Z,101920.38
2019-03-21T12:26:45.648Z,101911.72
2019-03-21T12:29:13.309Z,101914.28
2019-03-21T12:31:40.959Z,101912.11
2019-03-21T12:34:08.612Z,101905.12
2019-03-21T12:36:36.266Z,101909.19
2019-03-21T12:39:03.991Z,101909.19
2019-03-21T12:41:31.679Z,101911.37
2019-03-21T12:43:59.319Z,101893.46
2019-03-21T12:46:27.003Z,101904.55
2019-03-21T12:48:54.667Z,101896.72
2019-03-21T12:51:22.373Z,101899.50
2019-03-21T12:53:50.106Z,101890.66
2019-03-21T12:56:17.752Z,101887.42
2019-03-21T12:58:45.399Z,101890.13
2019-03-21T13:01:13.079Z,101884.84
2019-03-21T13:03:40.734Z,101877.58
2019-03-21T13:06:08.624Z,101872.91
2019-03-21T13:08:36.285Z,101876.50
2019-03-21T13:11:03.940Z,101875.92
2019-03-21T13:13:31.591Z,101875.14
2019-03-21T13:15:59.637Z,101871.52
2019-03-21T13:18:27.343Z,101866.23
2019-03-21T13:20:54.987Z,101868.91
2019-03-21T13:23:22.665Z,101860.95
2019-03-21T13:25:50.346Z,101864.03
2019-03-21T13:28:18.096Z,101856.69
2019-03-21T13:30:45.842Z,101858.14
2019-03-21T13:33:13.495Z,101850.41
2019-03-21T13:35:41.140Z,101847.45
2019-03-21T13:38:08.791Z,101851.89
2019-03-21T13:40:36.531Z,101848.39
2019-03-21T13:43:04.312Z,101848.62
2019-03-21T13:45:32.267Z,101846.41
2019-03-21T13:47:59.929Z,101848.22
2019-03-21T13:50:27.575Z,101836.89
2019-03-21T13:53:04.346Z,101837.27
2019-03-21T13:55:24.640Z,101828.73
2019-03-21T13:57:52.523Z,101828.96
2019-03-21T14:00:20.272Z,101825.97
2019-03-21T14:02:47.942Z,101811.19
2019-03-21T14:05:15.579Z,101821.88
2019-03-21T14:07:43.269Z,101817.23
2019-03-21T14:10:10.969Z,101800.44
2019-03-21T14:12:38.744Z,101809.15
2019-03-21T14:15:06.407Z,101803.39
2019-03-21T14:17:34.060Z,101798.66
2019-03-21T14:20:01.708Z,101803.71
2019-03-21T14:22:29.569Z,101795.22
2019-03-21T14:24:57.315Z,101791.30
2019-03-21T14:27:26.113Z,101791.30
2019-03-21T14:30:01.118Z,101790.51
2019-03-21T14:32:23.423Z,101790.72
2019-03-21T14:34:51.084Z,101781.19
2019-03-21T14:37:18.815Z,101779.80
2019-03-21T14:39:46.480Z,101781.17
2019-03-21T14:42:14.146Z,101777.02
2019-03-21T14:44:41.778Z,101779.25
2019-03-21T14:47:09.426Z,101774.20
2019-03-21T14:49:37.084Z,101768.47
2019-03-21T14:52:04.978Z,101768.78
2019-03-21T14:54:32.665Z,101764.23
2019-03-21T14:57:00.315Z,101765.22
2019-03-21T14:59:28.194Z,101761.56
2019-03-21T15:01:55.849Z,101763.19
2019-03-21T15:04:23.510Z,101764.23
2019-03-21T15:06:51.195Z,101768.69
2019-03-21T15:09:18.853Z,101762.97
2019-03-21T15:11:46.607Z,101765.38
2019-03-21T15:14:14.450Z,101764.72
2019-03-21T15:16:42.095Z,101770.34
2019-03-21T15:19:09.779Z,101769.92
2019-03-21T15:21:37.430Z,101769.84
2019-03-21T15:24:05.092Z,101769.39
2019-03-21T15:26:32.737Z,101776.39
2019-03-21T15:29:00.394Z,101770.41
2019-03-21T15:31:28.067Z,101772.25
2019-03-21T15:33:55.727Z,101770.70
2019-03-21T15:36:23.389Z,101769.55
2019-03-21T15:38:51.116Z,101772.06
2019-03-21T15:41:18.839Z,101772.80
2019-03-21T15:43:46.878Z,101767.52
2019-03-21T15:46:15.242Z,101769.88
2019-03-21T15:48:43.047Z,101764.63
2019-03-21T15:51:10.706Z,101765.41
2019-03-21T15:53:38.367Z,101769.16
2019-03-21T15:56:06.038Z,101775.45
2019-03-21T15:58:33.955Z,101767.05
2019-03-21T16:01:01.651Z,101764.30
2019-03-21T16:03:29.306Z,101764.05
2019-03-21T16:05:56.967Z,101755.45
2019-03-21T16:08:27.096Z,101755.45
2019-03-21T16:10:53.984Z,101764.41
2019-03-21T16:13:21.632Z,101759.73
2019-03-21T16:15:49.284Z,101754.77
2019-03-21T16:18:16.951Z,101756.92
2019-03-21T16:20:44.638Z,101754.73
2019-03-21T16:23:12.422Z,101755.59
2019-03-21T16:25:40.084Z,101759.86
2019-03-21T16:28:07.886Z,101755.85
2019-03-21T16:30:35.523Z,101763.31
2019-03-21T16:33:03.192Z,101762.66
2019-03-21T16:35:30.857Z,101752.91
2019-03-21T16:37:58.519Z,101755.02
2019-03-21T16:40:26.195Z,101762.27
2019-03-21T16:42:53.874Z,101754.28
2019-03-21T16:45:21.695Z,101754.28
2019-03-21T16:47:49.343Z,101749.08
2019-03-21T16:50:17.005Z,101749.08
2019-03-21T16:52:44.923Z,101755.22
2019-03-21T16:55:12.659Z,101756.66
2019-03-21T16:57:40.315Z,101749.89
2019-03-21T17:00:07.967Z,101747.02
2019-03-21T17:02:35.623Z,101745.51
2019-03-21T17:05:03.293Z,101750.16
2019-03-21T17:07:31.352Z,101757.00
2019-03-21T17:09:59.065Z,101755.17
2019-03-21T17:12:26.728Z,101759.67
2019-03-21T17:14:54.621Z,101766.48
2019-03-21T17:17:22.352Z,101766.10
2019-03-21T17:19:50.199Z,101769.03
2019-03-21T17:22:17.944Z,101766.81
2019-03-21T17:24:45.590Z,101769.84
2019-03-21T17:27:13.547Z,101777.05
2019-03-21T17:29:41.275Z,101786.23
2019-03-21T17:32:08.935Z,101785.51
2019-03-21T17:34:36.615Z,101792.78
2019-03-21T17:37:04.294Z,101783.94
2019-03-21T17:39:31.964Z,101792.13
2019-03-21T17:41:59.762Z,101781.63
2019-03-21T17:44:27.470Z,101782.20
2019-03-21T17:46:55.141Z,101787.11
2019-03-21T17:49:22.800Z,101786.09
2019-03-21T17:51:50.518Z,101786.09
2019-03-21T17:54:18.194Z,101800.95
2019-03-21T17:56:45.859Z,101802.38
2019-03-21T17:59:13.527Z,101801.84
2019-03-21T18:01:41.180Z,101803.15
2019-03-21T18:04:08.839Z,101806.70
2019-03-21T18:06:36.518Z,101810.95
2019-03-21T18:09:04.349Z,101810.03
2019-03-21T18:11:32.012Z,101816.63
2019-03-21T18:13:59.671Z,101816.63
2019-03-21T18:16:27.353Z,101822.11
2019-03-21T18:18:54.999Z,101822.11
2019-03-21T18:21:22.660Z,101822.11
2019-03-21T18:23:50.503Z,101822.11
2019-03-21T18:26:18.183Z,101820.41
2019-03-21T18:28:45.831Z,101822.17
2019-03-21T18:31:13.494Z,101815.43
2019-03-21T18:33:41.159Z,101822.63
2019-03-21T18:36:08.820Z,101825.34
2019-03-21T18:38:36.555Z,101829.78
2019-03-21T18:41:04.230Z,101830.66
2019-03-21T18:43:31.885Z,101822.25
2019-03-21T18:45:59.528Z,101828.03
2019-03-21T18:48:27.200Z,101828.82
2019-03-21T18:50:54.848Z,101826.48
2019-03-21T18:53:22.548Z,101826.48
2019-03-21T18:55:50.248Z,101823.50
2019-03-21T18:58:18.015Z,101828.05
2019-03-21T19:00:45.672Z,101823.95
2019-03-21T19:03:13.331Z,101825.77
2019-03-21T19:05:40.992Z,101833.23
2019-03-21T19:08:08.654Z,101836.49
2019-03-21T19:10:36.356Z,101826.30
2019-03-21T19:13:04.071Z,101833.19
2019-03-21T19:15:31.737Z,101833.63
2019-03-21T19:17:59.392Z,101829.19
2019-03-21T19:20:27.071Z,101823.64
2019-03-21T19:22:54.812Z,101824.25
2019-03-21T19:25:22.468Z,101825.36
2019-03-21T19:27:50.387Z,101830.77
2019-03-21T19:30:18.054Z,101825.58
2019-03-21T19:32:46.251Z,101824.15
2019-03-21T19:35:13.917Z,101827.62
2019-03-21T19:37:41.623Z,101825.97
2019-03-21T19:40:09.279Z,101831.59
2019-03-21T19:42:36.943Z,101829.65
2019-03-21T19:45:04.615Z,101834.67
2019-03-21T19:47:32.551Z,101833.25
2019-03-21T19:50:00.353Z,101836.11
2019-03-21T19:52:28.028Z,101838.87
2019-03-21T19:54:55.685Z,101843.52
2019-03-21T19:57:23.351Z,101846.78
2019-03-21T19:59:51.008Z,101847.17
2019-03-21T20:02:18.681Z,101841.53
2019-03-21T20:04:48.336Z,101843.62
2019-03-21T20:07:16.072Z,101845.19
2019-03-21T20:09:43.905Z,101843.59
2019-03-21T20:12:11.550Z,101842.98
2019-03-21T20:14:39.213Z,101853.06
2019-03-21T20:17:06.865Z,101847.58
2019-03-21T20:19:34.522Z,101846.02
2019-03-21T20:22:02.259Z,101849.99
2019-03-21T20:24:29.940Z,101852.44
2019-03-21T20:26:57.868Z,101854.58
2019-03-21T20:29:25.543Z,101848.23
2019-03-21T20:31:53.191Z,101846.66
2019-03-21T20:34:20.955Z,101842.86
2019-03-21T20:36:48.600Z,101841.28
2019-03-21T20:39:16.281Z,101842.12
2019-03-21T20:41:43.917Z,101840.72
2019-03-21T20:44:15.306Z,101844.44
2019-03-21T20:46:40.944Z,101844.52
2019-03-21T20:49:08.615Z,101847.77
2019-03-21T20:51:36.410Z,101843.69
2019-03-21T20:54:04.202Z,101847.45
2019-03-21T20:56:31.872Z,101847.30
2019-03-21T20:58:59.538Z,101845.43
2019-03-21T21:01:27.203Z,101839.83
2019-03-21T21:03:54.860Z,101849.28
2019-03-21T21:06:22.592Z,101852.77
2019-03-21T21:08:50.300Z,101844.37
2019-03-21T21:11:17.958Z,101843.91
2019-03-21T21:13:45.635Z,101844.03
2019-03-21T21:16:13.290Z,101848.13
2019-03-21T21:18:40.947Z,101856.11
2019-03-21T21:21:08.655Z,101848.13
2019-03-21T21:23:36.303Z,101853.55
2019-03-21T21:26:05.650Z,101850.95
2019-03-21T21:28:33.469Z,101852.88
2019-03-21T21:31:01.128Z,101845.97
2019-03-21T21:33:28.825Z,101856.64
2019-03-21T21:35:56.532Z,101852.29
2019-03-21T21:38:24.187Z,101851.26
2019-03-21T21:40:51.853Z,101853.27
2019-03-21T21:43:19.638Z,101854.61
2019-03-21T21:45:47.376Z,101852.23
2019-03-21T21:48:15.127Z,101849.89
2019-03-21T21:50:43.049Z,101849.16
2019-03-21T21:53:10.703Z,101848.91
2019-03-21T21:55:38.372Z,101853.97
2019-03-21T21:58:06.039Z,101861.40
2019-03-21T22:00:34.057Z,101854.58
2019-03-21T22:03:01.807Z,101848.58
2019-03-21T22:05:29.452Z,101854.03
2019-03-21T22:07:57.196Z,101857.75
2019-03-21T22:10:24.924Z,101860.89
2019-03-21T22:12:52.676Z,101864.58
2019-03-21T22:15:20.321Z,101857.22
2019-03-21T22:17:47.981Z,101857.16
2019-03-21T22:20:15.701Z,101855.25
2019-03-21T22:22:43.372Z,101858.31
2019-03-21T22:25:11.147Z,101861.84
2019-03-21T22:27:38.958Z,101857.98
2019-03-21T22:30:06.694Z,101863.56
2019-03-21T22:32:34.363Z,101863.83
2019-03-21T22:35:02.045Z,101863.68
2019-03-21T22:37:29.731Z,101860.08
2019-03-21T22:39:57.381Z,101865.55
2019-03-21T22:42:25.041Z,101868.66
2019-03-21T22:44:52.700Z,101871.78
2019-03-21T22:47:20.372Z,101873.00
2019-03-21T22:49:48.075Z,101870.30
2019-03-21T22:52:15.744Z,101865.16
2019-03-21T22:54:43.403Z,101869.98
2019-03-21T22:57:11.072Z,101869.93
2019-03-21T22:59:38.735Z,101867.68
2019-03-21T23:02:06.658Z,101864.53
2019-03-21T23:04:34.323Z,101863.82
2019-03-21T23:07:01.993Z,101865.42
2019-03-21T23:09:29.732Z,101871.73
2019-03-21T23:11:57.503Z,101865.66
2019-03-21T23:14:25.433Z,101870.37
2019-03-21T23:16:53.251Z,101871.45
2019-03-21T23:19:20.909Z,101869.27
2019-03-21T23:21:48.628Z,101865.61
2019-03-21T23:24:16.372Z,101856.42
2019-03-21T23:26:52.428Z,101862.72
2019-03-21T23:29:13.451Z,101862.58
2019-03-21T23:31:41.379Z,101860.01
2019-03-21T23:34:09.102Z,101859.16
2019-03-21T23:36:36.822Z,101854.45
2019-03-21T23:39:04.515Z,101851.91
2019-03-21T23:41:32.222Z,101856.73
2019-03-21T23:43:59.883Z,101852.56
2019-03-21T23:46:27.545Z,101857.33
2019-03-21T23:48:55.213Z,101859.33
2019-03-21T23:51:22.867Z,101856.73
2019-03-21T23:53:50.572Z,101862.45
2019-03-21T23:56:18.615Z,101867.59
2019-03-21T23:58:46.459Z,101865.68
